sensor_id;sensor_type;location;lat;lon;timestamp;P1;durP1;ratioP1;P2;durP2;ratioP2
7460;SDS011;6757;52.258;12.840;2023-02-28T00:00:18;0.30;;;0.22;;
7460;SDS011;6757;52.258;12.840;2023-02-28T00:02:47;0.85;;;0.85;;
7460;SDS011;6757;52.258;12.840;2023-02-28T00:05:16;0.95;;;0.52;;
7460;SDS011;6757;52.258;12.840;2023-02-28T00:07:45;0.60;;;0.60;;
7460;SDS011;6757;52.258;12.840;2023-02-28T00:10:14;1.42;;;0.63;;
7460;SDS011;6757;52.258;12.840;2023-02-28T00:12:45;0.50;;;0.50;;
7460;SDS011;6757;52.258;12.840;2023-02-28T00:15:13;1.23;;;0.57;;
7460;SDS011;6757;52.258;12.840;2023-02-28T00:17:40;0.55;;;0.55;;
7460;SDS011;6757;52.258;12.840;2023-02-28T00:20:08;0.80;;;0.52;;
7460;SDS011;6757;52.258;12.840;2023-02-28T00:22:39;4.18;;;0.82;;
7460;SDS011;6757;52.258;12.840;2023-02-28T00:25:08;1.48;;;0.65;;
7460;SDS011;6757;52.258;12.840;2023-02-28T00:27:38;2.47;;;1.08;;
7460;SDS011;6757;52.258;12.840;2023-02-28T00:30:07;0.73;;;0.57;;
7460;SDS011;6757;52.258;12.840;2023-02-28T00:32:37;2.08;;;0.80;;
7460;SDS011;6757;52.258;12.840;2023-02-28T00:35:05;1.55;;;0.98;;
7460;SDS011;6757;52.258;12.840;2023-02-28T00:37:33;0.38;;;0.38;;
7460;SDS011;6757;52.258;12.840;2023-02-28T00:40:02;0.30;;;0.30;;
7460;SDS011;6757;52.258;12.840;2023-02-28T00:42:31;0.40;;;0.40;;
7460;SDS011;6757;52.258;12.840;2023-02-28T00:44:58;2.38;;;1.48;;
7460;SDS011;6757;52.258;12.840;2023-02-28T00:47:25;0.47;;;0.47;;
7460;SDS011;6757;52.258;12.840;2023-02-28T00:49:52;0.28;;;0.28;;
7460;SDS011;6757;52.258;12.840;2023-02-28T00:52:19;0.35;;;0.35;;
7460;SDS011;6757;52.258;12.840;2023-02-28T00:54:46;0.43;;;0.43;;
7460;SDS011;6757;52.258;12.840;2023-02-28T00:57:14;0.55;;;0.55;;
7460;SDS011;6757;52.258;12.840;2023-02-28T00:59:41;1.85;;;1.38;;
7460;SDS011;6757;52.258;12.840;2023-02-28T01:02:08;0.25;;;0.25;;
7460;SDS011;6757;52.258;12.840;2023-02-28T01:04:35;3.30;;;0.90;;
7460;SDS011;6757;52.258;12.840;2023-02-28T01:07:02;1.65;;;0.93;;
7460;SDS011;6757;52.258;12.840;2023-02-28T01:09:29;1.27;;;0.80;;
7460;SDS011;6757;52.258;12.840;2023-02-28T01:11:56;0.47;;;0.47;;
7460;SDS011;6757;52.258;12.840;2023-02-28T01:14:24;0.47;;;0.47;;
7460;SDS011;6757;52.258;12.840;2023-02-28T01:16:51;0.30;;;0.30;;
7460;SDS011;6757;52.258;12.840;2023-02-28T01:19:18;1.38;;;0.68;;
7460;SDS011;6757;52.258;12.840;2023-02-28T01:21:45;1.90;;;1.02;;
7460;SDS011;6757;52.258;12.840;2023-02-28T01:24:12;0.45;;;0.45;;
7460;SDS011;6757;52.258;12.840;2023-02-28T01:26:38;1.30;;;0.82;;
7460;SDS011;6757;52.258;12.840;2023-02-28T01:29:05;1.08;;;0.70;;
7460;SDS011;6757;52.258;12.840;2023-02-28T01:31:33;1.27;;;1.23;;
7460;SDS011;6757;52.258;12.840;2023-02-28T01:34:01;1.25;;;0.68;;
7460;SDS011;6757;52.258;12.840;2023-02-28T01:36:29;1.85;;;0.80;;
7460;SDS011;6757;52.258;12.840;2023-02-28T01:38:56;1.40;;;0.98;;
7460;SDS011;6757;52.258;12.840;2023-02-28T01:41:24;1.13;;;1.02;;
7460;SDS011;6757;52.258;12.840;2023-02-28T01:43:56;1.52;;;1.15;;
7460;SDS011;6757;52.258;12.840;2023-02-28T01:46:29;2.05;;;0.68;;
7460;SDS011;6757;52.258;12.840;2023-02-28T01:49:00;0.75;;;0.75;;
7460;SDS011;6757;52.258;12.840;2023-02-28T01:51:35;3.13;;;0.88;;
7460;SDS011;6757;52.258;12.840;2023-02-28T01:54:11;0.65;;;0.60;;
7460;SDS011;6757;52.258;12.840;2023-02-28T01:56:43;0.60;;;0.60;;
7460;SDS011;6757;52.258;12.840;2023-02-28T01:59:13;2.00;;;1.00;;
7460;SDS011;6757;52.258;12.840;2023-02-28T02:01:47;0.45;;;0.45;;
7460;SDS011;6757;52.258;12.840;2023-02-28T02:04:17;3.20;;;1.40;;
7460;SDS011;6757;52.258;12.840;2023-02-28T02:06:45;0.75;;;0.68;;
7460;SDS011;6757;52.258;12.840;2023-02-28T02:09:14;0.47;;;0.47;;
7460;SDS011;6757;52.258;12.840;2023-02-28T02:11:41;0.88;;;0.88;;
7460;SDS011;6757;52.258;12.840;2023-02-28T02:14:13;1.90;;;0.82;;
7460;SDS011;6757;52.258;12.840;2023-02-28T02:17:01;1.38;;;1.27;;
7460;SDS011;6757;52.258;12.840;2023-02-28T02:26:00;0.85;;;0.85;;
7460;SDS011;6757;52.258;12.840;2023-02-28T02:28:58;1.50;;;1.13;;
7460;SDS011;6757;52.258;12.840;2023-02-28T02:32:02;1.00;;;0.68;;
7460;SDS011;6757;52.258;12.840;2023-02-28T02:34:48;1.08;;;0.88;;
7460;SDS011;6757;52.258;12.840;2023-02-28T02:37:27;2.50;;;0.88;;
7460;SDS011;6757;52.258;12.840;2023-02-28T02:40:07;0.70;;;0.70;;
7460;SDS011;6757;52.258;12.840;2023-02-28T02:42:41;0.22;;;0.22;;
7460;SDS011;6757;52.258;12.840;2023-02-28T02:45:16;1.00;;;1.00;;
7460;SDS011;6757;52.258;12.840;2023-02-28T02:47:50;1.65;;;1.00;;
7460;SDS011;6757;52.258;12.840;2023-02-28T02:50:19;0.57;;;0.57;;
7460;SDS011;6757;52.258;12.840;2023-02-28T02:52:51;0.60;;;0.60;;
7460;SDS011;6757;52.258;12.840;2023-02-28T02:55:23;0.98;;;0.95;;
7460;SDS011;6757;52.258;12.840;2023-02-28T02:57:52;1.25;;;1.08;;
7460;SDS011;6757;52.258;12.840;2023-02-28T03:00:24;1.52;;;1.15;;
7460;SDS011;6757;52.258;12.840;2023-02-28T03:02:56;0.80;;;0.80;;
7460;SDS011;6757;52.258;12.840;2023-02-28T03:05:26;0.30;;;0.30;;
7460;SDS011;6757;52.258;12.840;2023-02-28T03:07:55;0.88;;;0.65;;
7460;SDS011;6757;52.258;12.840;2023-02-28T03:10:25;1.58;;;1.48;;
7460;SDS011;6757;52.258;12.840;2023-02-28T03:12:57;0.68;;;0.57;;
7460;SDS011;6757;52.258;12.840;2023-02-28T03:15:59;1.10;;;0.88;;
7460;SDS011;6757;52.258;12.840;2023-02-28T03:18:50;2.15;;;0.95;;
7460;SDS011;6757;52.258;12.840;2023-02-28T03:24:03;1.10;;;0.93;;
7460;SDS011;6757;52.258;12.840;2023-02-28T03:26:34;1.00;;;0.77;;
7460;SDS011;6757;52.258;12.840;2023-02-28T03:29:07;0.65;;;0.60;;
7460;SDS011;6757;52.258;12.840;2023-02-28T03:31:43;2.15;;;0.77;;
7460;SDS011;6757;52.258;12.840;2023-02-28T03:34:16;1.65;;;1.40;;
7460;SDS011;6757;52.258;12.840;2023-02-28T03:36:52;0.55;;;0.55;;
7460;SDS011;6757;52.258;12.840;2023-02-28T03:39:23;1.00;;;0.85;;
7460;SDS011;6757;52.258;12.840;2023-02-28T03:41:57;0.80;;;0.80;;
7460;SDS011;6757;52.258;12.840;2023-02-28T03:44:28;0.68;;;0.68;;
7460;SDS011;6757;52.258;12.840;2023-02-28T03:47:02;0.73;;;0.73;;
7460;SDS011;6757;52.258;12.840;2023-02-28T03:49:34;0.63;;;0.63;;
7460;SDS011;6757;52.258;12.840;2023-02-28T03:52:09;2.88;;;1.38;;
7460;SDS011;6757;52.258;12.840;2023-02-28T03:54:37;0.68;;;0.40;;
7460;SDS011;6757;52.258;12.840;2023-02-28T03:57:10;2.65;;;1.52;;
7460;SDS011;6757;52.258;12.840;2023-02-28T03:59:44;1.80;;;1.30;;
7460;SDS011;6757;52.258;12.840;2023-02-28T04:02:14;0.65;;;0.20;;
7460;SDS011;6757;52.258;12.840;2023-02-28T04:04:41;1.17;;;0.82;;
7460;SDS011;6757;52.258;12.840;2023-02-28T04:07:14;4.35;;;0.93;;
7460;SDS011;6757;52.258;12.840;2023-02-28T04:09:42;2.45;;;1.25;;
7460;SDS011;6757;52.258;12.840;2023-02-28T04:12:09;0.52;;;0.52;;
7460;SDS011;6757;52.258;12.840;2023-02-28T04:14:36;0.75;;;0.75;;
7460;SDS011;6757;52.258;12.840;2023-02-28T04:17:03;7.95;;;1.50;;
7460;SDS011;6757;52.258;12.840;2023-02-28T04:19:30;0.38;;;0.38;;
7460;SDS011;6757;52.258;12.840;2023-02-28T04:21:57;3.10;;;1.80;;
7460;SDS011;6757;52.258;12.840;2023-02-28T04:24:26;0.73;;;0.55;;
7460;SDS011;6757;52.258;12.840;2023-02-28T04:26:55;3.28;;;1.42;;
7460;SDS011;6757;52.258;12.840;2023-02-28T04:29:24;0.43;;;0.43;;
7460;SDS011;6757;52.258;12.840;2023-02-28T04:31:54;0.70;;;0.68;;
7460;SDS011;6757;52.258;12.840;2023-02-28T04:34:22;4.22;;;1.58;;
7460;SDS011;6757;52.258;12.840;2023-02-28T04:36:50;1.02;;;0.68;;
7460;SDS011;6757;52.258;12.840;2023-02-28T04:39:19;1.42;;;1.30;;
7460;SDS011;6757;52.258;12.840;2023-02-28T04:41:48;1.52;;;1.08;;
7460;SDS011;6757;52.258;12.840;2023-02-28T04:44:16;1.70;;;1.08;;
7460;SDS011;6757;52.258;12.840;2023-02-28T04:46:43;1.55;;;1.08;;
7460;SDS011;6757;52.258;12.840;2023-02-28T04:49:10;0.52;;;0.52;;
7460;SDS011;6757;52.258;12.840;2023-02-28T04:51:38;0.45;;;0.45;;
7460;SDS011;6757;52.258;12.840;2023-02-28T04:54:05;0.85;;;0.85;;
7460;SDS011;6757;52.258;12.840;2023-02-28T04:56:32;1.08;;;0.98;;
7460;SDS011;6757;52.258;12.840;2023-02-28T04:59:00;2.08;;;1.30;;
7460;SDS011;6757;52.258;12.840;2023-02-28T05:01:28;0.68;;;0.60;;
7460;SDS011;6757;52.258;12.840;2023-02-28T05:03:58;0.85;;;0.68;;
7460;SDS011;6757;52.258;12.840;2023-02-28T05:06:27;0.50;;;0.50;;
7460;SDS011;6757;52.258;12.840;2023-02-28T05:08:56;1.70;;;0.93;;
7460;SDS011;6757;52.258;12.840;2023-02-28T05:11:24;1.25;;;0.95;;
7460;SDS011;6757;52.258;12.840;2023-02-28T05:13:54;1.40;;;1.30;;
7460;SDS011;6757;52.258;12.840;2023-02-28T05:16:22;1.83;;;0.82;;
7460;SDS011;6757;52.258;12.840;2023-02-28T05:18:49;0.60;;;0.60;;
7460;SDS011;6757;52.258;12.840;2023-02-28T05:21:22;0.57;;;0.57;;
7460;SDS011;6757;52.258;12.840;2023-02-28T05:23:52;0.85;;;0.85;;
7460;SDS011;6757;52.258;12.840;2023-02-28T05:26:21;0.65;;;0.65;;
7460;SDS011;6757;52.258;12.840;2023-02-28T05:28:48;1.92;;;1.20;;
7460;SDS011;6757;52.258;12.840;2023-02-28T05:31:15;1.40;;;1.05;;
7460;SDS011;6757;52.258;12.840;2023-02-28T05:33:43;2.50;;;1.75;;
7460;SDS011;6757;52.258;12.840;2023-02-28T05:36:10;3.58;;;1.55;;
7460;SDS011;6757;52.258;12.840;2023-02-28T05:38:37;1.10;;;0.95;;
7460;SDS011;6757;52.258;12.840;2023-02-28T05:41:05;0.73;;;0.52;;
7460;SDS011;6757;52.258;12.840;2023-02-28T05:43:33;1.02;;;0.68;;
7460;SDS011;6757;52.258;12.840;2023-02-28T05:46:02;0.30;;;0.30;;
7460;SDS011;6757;52.258;12.840;2023-02-28T05:48:30;0.77;;;0.73;;
7460;SDS011;6757;52.258;12.840;2023-02-28T05:50:59;0.80;;;0.77;;
7460;SDS011;6757;52.258;12.840;2023-02-28T05:53:26;1.08;;;0.60;;
7460;SDS011;6757;52.258;12.840;2023-02-28T05:55:53;1.58;;;1.35;;
7460;SDS011;6757;52.258;12.840;2023-02-28T05:58:20;0.50;;;0.50;;
7460;SDS011;6757;52.258;12.840;2023-02-28T06:00:47;2.25;;;1.15;;
7460;SDS011;6757;52.258;12.840;2023-02-28T06:03:14;1.23;;;1.17;;
7460;SDS011;6757;52.258;12.840;2023-02-28T06:05:41;1.38;;;1.27;;
7460;SDS011;6757;52.258;12.840;2023-02-28T06:08:10;6.03;;;1.05;;
7460;SDS011;6757;52.258;12.840;2023-02-28T06:10:37;0.95;;;0.80;;
7460;SDS011;6757;52.258;12.840;2023-02-28T06:13:04;1.17;;;0.98;;
7460;SDS011;6757;52.258;12.840;2023-02-28T06:15:31;0.55;;;0.55;;
7460;SDS011;6757;52.258;12.840;2023-02-28T06:17:59;0.60;;;0.60;;
7460;SDS011;6757;52.258;12.840;2023-02-28T06:20:26;1.50;;;0.57;;
7460;SDS011;6757;52.258;12.840;2023-02-28T06:22:54;0.90;;;0.80;;
7460;SDS011;6757;52.258;12.840;2023-02-28T06:25:24;1.67;;;0.60;;
7460;SDS011;6757;52.258;12.840;2023-02-28T06:27:52;0.90;;;0.47;;
7460;SDS011;6757;52.258;12.840;2023-02-28T06:30:20;1.33;;;1.23;;
7460;SDS011;6757;52.258;12.840;2023-02-28T06:32:50;0.45;;;0.45;;
7460;SDS011;6757;52.258;12.840;2023-02-28T06:35:17;0.75;;;0.70;;
7460;SDS011;6757;52.258;12.840;2023-02-28T06:37:44;0.20;;;0.20;;
7460;SDS011;6757;52.258;12.840;2023-02-28T06:40:12;1.95;;;1.45;;
7460;SDS011;6757;52.258;12.840;2023-02-28T06:42:41;4.82;;;0.95;;
7460;SDS011;6757;52.258;12.840;2023-02-28T06:45:08;2.28;;;1.45;;
7460;SDS011;6757;52.258;12.840;2023-02-28T06:47:36;0.73;;;0.65;;
7460;SDS011;6757;52.258;12.840;2023-02-28T06:50:04;0.35;;;0.30;;
7460;SDS011;6757;52.258;12.840;2023-02-28T06:52:33;0.43;;;0.43;;
7460;SDS011;6757;52.258;12.840;2023-02-28T06:55:02;0.63;;;0.63;;
7460;SDS011;6757;52.258;12.840;2023-02-28T06:57:31;0.32;;;0.32;;
7460;SDS011;6757;52.258;12.840;2023-02-28T07:00:04;3.97;;;1.50;;
7460;SDS011;6757;52.258;12.840;2023-02-28T07:02:35;0.77;;;0.77;;
7460;SDS011;6757;52.258;12.840;2023-02-28T07:05:03;0.63;;;0.63;;
7460;SDS011;6757;52.258;12.840;2023-02-28T07:07:31;1.70;;;0.95;;
7460;SDS011;6757;52.258;12.840;2023-02-28T07:09:58;0.80;;;0.80;;
7460;SDS011;6757;52.258;12.840;2023-02-28T07:12:25;0.88;;;0.70;;
7460;SDS011;6757;52.258;12.840;2023-02-28T07:14:52;1.65;;;0.82;;
7460;SDS011;6757;52.258;12.840;2023-02-28T07:17:20;2.80;;;1.45;;
7460;SDS011;6757;52.258;12.840;2023-02-28T07:19:47;1.02;;;0.95;;
7460;SDS011;6757;52.258;12.840;2023-02-28T07:22:14;2.83;;;2.35;;
7460;SDS011;6757;52.258;12.840;2023-02-28T07:24:41;0.43;;;0.43;;
7460;SDS011;6757;52.258;12.840;2023-02-28T07:27:08;3.13;;;1.23;;
7460;SDS011;6757;52.258;12.840;2023-02-28T07:29:35;0.85;;;0.85;;
7460;SDS011;6757;52.258;12.840;2023-02-28T07:32:03;0.80;;;0.80;;
7460;SDS011;6757;52.258;12.840;2023-02-28T07:34:32;1.23;;;1.15;;
7460;SDS011;6757;52.258;12.840;2023-02-28T07:36:58;1.00;;;1.00;;
7460;SDS011;6757;52.258;12.840;2023-02-28T07:39:28;2.53;;;1.77;;
7460;SDS011;6757;52.258;12.840;2023-02-28T07:41:55;2.63;;;1.88;;
7460;SDS011;6757;52.258;12.840;2023-02-28T07:44:22;0.60;;;0.60;;
7460;SDS011;6757;52.258;12.840;2023-02-28T07:46:49;2.63;;;1.50;;
7460;SDS011;6757;52.258;12.840;2023-02-28T07:49:16;0.52;;;0.52;;
7460;SDS011;6757;52.258;12.840;2023-02-28T07:51:44;0.43;;;0.43;;
7460;SDS011;6757;52.258;12.840;2023-02-28T07:54:11;2.28;;;0.70;;
7460;SDS011;6757;52.258;12.840;2023-02-28T07:56:38;0.43;;;0.43;;
7460;SDS011;6757;52.258;12.840;2023-02-28T07:59:04;2.38;;;1.55;;
7460;SDS011;6757;52.258;12.840;2023-02-28T08:01:31;1.95;;;1.23;;
7460;SDS011;6757;52.258;12.840;2023-02-28T08:03:58;0.90;;;0.82;;
7460;SDS011;6757;52.258;12.840;2023-02-28T08:06:25;2.58;;;1.33;;
7460;SDS011;6757;52.258;12.840;2023-02-28T08:08:53;0.32;;;0.32;;
7460;SDS011;6757;52.258;12.840;2023-02-28T08:11:21;1.60;;;0.70;;
7460;SDS011;6757;52.258;12.840;2023-02-28T08:13:48;1.08;;;0.88;;
7460;SDS011;6757;52.258;12.840;2023-02-28T08:16:15;0.65;;;0.65;;
7460;SDS011;6757;52.258;12.840;2023-02-28T08:18:46;8.85;;;1.38;;
7460;SDS011;6757;52.258;12.840;2023-02-28T08:21:14;0.80;;;0.73;;
7460;SDS011;6757;52.258;12.840;2023-02-28T08:23:41;1.85;;;1.17;;
7460;SDS011;6757;52.258;12.840;2023-02-28T08:26:09;0.70;;;0.70;;
7460;SDS011;6757;52.258;12.840;2023-02-28T08:28:39;0.55;;;0.43;;
7460;SDS011;6757;52.258;12.840;2023-02-28T08:31:09;1.10;;;1.00;;
7460;SDS011;6757;52.258;12.840;2023-02-28T08:33:38;0.45;;;0.45;;
7460;SDS011;6757;52.258;12.840;2023-02-28T08:36:06;3.13;;;1.33;;
7460;SDS011;6757;52.258;12.840;2023-02-28T08:38:35;1.02;;;0.98;;
7460;SDS011;6757;52.258;12.840;2023-02-28T08:41:03;1.98;;;0.85;;
7460;SDS011;6757;52.258;12.840;2023-02-28T08:43:33;1.83;;;1.45;;
7460;SDS011;6757;52.258;12.840;2023-02-28T08:46:01;0.90;;;0.68;;
7460;SDS011;6757;52.258;12.840;2023-02-28T08:48:31;1.15;;;0.88;;
7460;SDS011;6757;52.258;12.840;2023-02-28T08:51:03;0.30;;;0.30;;
7460;SDS011;6757;52.258;12.840;2023-02-28T08:53:34;0.70;;;0.70;;
7460;SDS011;6757;52.258;12.840;2023-02-28T08:56:02;0.22;;;0.22;;
7460;SDS011;6757;52.258;12.840;2023-02-28T08:58:33;2.45;;;1.63;;
7460;SDS011;6757;52.258;12.840;2023-02-28T09:01:06;1.30;;;1.17;;
7460;SDS011;6757;52.258;12.840;2023-02-28T09:03:35;3.50;;;1.45;;
7460;SDS011;6757;52.258;12.840;2023-02-28T09:06:02;1.35;;;0.88;;
7460;SDS011;6757;52.258;12.840;2023-02-28T09:08:29;1.50;;;0.68;;
7460;SDS011;6757;52.258;12.840;2023-02-28T09:10:57;0.90;;;0.73;;
7460;SDS011;6757;52.258;12.840;2023-02-28T09:13:25;1.00;;;0.93;;
7460;SDS011;6757;52.258;12.840;2023-02-28T09:15:54;0.73;;;0.73;;
7460;SDS011;6757;52.258;12.840;2023-02-28T09:18:23;1.00;;;0.75;;
7460;SDS011;6757;52.258;12.840;2023-02-28T09:20:51;1.67;;;0.98;;
7460;SDS011;6757;52.258;12.840;2023-02-28T09:23:18;0.68;;;0.68;;
7460;SDS011;6757;52.258;12.840;2023-02-28T09:25:46;0.43;;;0.43;;
7460;SDS011;6757;52.258;12.840;2023-02-28T09:28:15;1.15;;;1.02;;
7460;SDS011;6757;52.258;12.840;2023-02-28T09:30:44;0.85;;;0.85;;
7460;SDS011;6757;52.258;12.840;2023-02-28T09:33:15;2.13;;;1.02;;
7460;SDS011;6757;52.258;12.840;2023-02-28T09:38:12;1.40;;;1.30;;
7460;SDS011;6757;52.258;12.840;2023-02-28T09:40:42;0.68;;;0.60;;
7460;SDS011;6757;52.258;12.840;2023-02-28T09:43:15;2.28;;;0.90;;
7460;SDS011;6757;52.258;12.840;2023-02-28T09:45:46;0.88;;;0.47;;
7460;SDS011;6757;52.258;12.840;2023-02-28T09:48:17;1.00;;;0.80;;
7460;SDS011;6757;52.258;12.840;2023-02-28T09:50:51;3.15;;;1.70;;
7460;SDS011;6757;52.258;12.840;2023-02-28T09:53:26;2.85;;;1.42;;
7460;SDS011;6757;52.258;12.840;2023-02-28T09:55:59;1.35;;;0.73;;
7460;SDS011;6757;52.258;12.840;2023-02-28T09:58:32;1.25;;;1.00;;
7460;SDS011;6757;52.258;12.840;2023-02-28T10:01:05;1.75;;;1.02;;
7460;SDS011;6757;52.258;12.840;2023-02-28T10:03:40;2.20;;;1.15;;
7460;SDS011;6757;52.258;12.840;2023-02-28T10:06:14;1.38;;;0.90;;
7460;SDS011;6757;52.258;12.840;2023-02-28T10:08:47;1.30;;;1.08;;
7460;SDS011;6757;52.258;12.840;2023-02-28T10:11:22;1.08;;;0.75;;
7460;SDS011;6757;52.258;12.840;2023-02-28T10:13:52;0.80;;;0.73;;
7460;SDS011;6757;52.258;12.840;2023-02-28T10:16:28;0.80;;;0.80;;
7460;SDS011;6757;52.258;12.840;2023-02-28T10:19:03;0.75;;;0.75;;
7460;SDS011;6757;52.258;12.840;2023-02-28T10:21:36;1.23;;;1.13;;
7460;SDS011;6757;52.258;12.840;2023-02-28T10:24:12;4.15;;;1.77;;
7460;SDS011;6757;52.258;12.840;2023-02-28T10:26:47;1.45;;;0.70;;
7460;SDS011;6757;52.258;12.840;2023-02-28T10:29:15;0.65;;;0.65;;
7460;SDS011;6757;52.258;12.840;2023-02-28T10:31:42;0.93;;;0.82;;
7460;SDS011;6757;52.258;12.840;2023-02-28T10:34:12;3.00;;;1.45;;
7460;SDS011;6757;52.258;12.840;2023-02-28T10:36:39;0.50;;;0.50;;
7460;SDS011;6757;52.258;12.840;2023-02-28T10:42:05;2.65;;;1.13;;
7460;SDS011;6757;52.258;12.840;2023-02-28T10:44:53;3.47;;;0.93;;
7460;SDS011;6757;52.258;12.840;2023-02-28T10:47:33;0.98;;;0.82;;
7460;SDS011;6757;52.258;12.840;2023-02-28T10:50:03;1.60;;;0.73;;
7460;SDS011;6757;52.258;12.840;2023-02-28T10:52:32;0.98;;;0.88;;
7460;SDS011;6757;52.258;12.840;2023-02-28T10:57:47;2.75;;;1.65;;
7460;SDS011;6757;52.258;12.840;2023-02-28T11:00:15;0.85;;;0.85;;
7460;SDS011;6757;52.258;12.840;2023-02-28T11:02:45;3.00;;;1.13;;
7460;SDS011;6757;52.258;12.840;2023-02-28T11:05:29;3.53;;;1.17;;
7460;SDS011;6757;52.258;12.840;2023-02-28T11:07:59;1.88;;;0.93;;
7460;SDS011;6757;52.258;12.840;2023-02-28T11:10:32;0.75;;;0.75;;
7460;SDS011;6757;52.258;12.840;2023-02-28T11:13:00;1.30;;;1.20;;
7460;SDS011;6757;52.258;12.840;2023-02-28T11:15:29;1.27;;;1.23;;
7460;SDS011;6757;52.258;12.840;2023-02-28T11:17:59;3.33;;;2.08;;
7460;SDS011;6757;52.258;12.840;2023-02-28T11:20:30;1.13;;;0.93;;
7460;SDS011;6757;52.258;12.840;2023-02-28T11:23:00;6.45;;;2.05;;
7460;SDS011;6757;52.258;12.840;2023-02-28T11:25:30;2.85;;;1.17;;
7460;SDS011;6757;52.258;12.840;2023-02-28T11:27:59;2.35;;;0.95;;
7460;SDS011;6757;52.258;12.840;2023-02-28T11:30:32;1.35;;;1.20;;
7460;SDS011;6757;52.258;12.840;2023-02-28T11:33:13;2.10;;;1.45;;
7460;SDS011;6757;52.258;12.840;2023-02-28T11:35:51;4.75;;;1.20;;
7460;SDS011;6757;52.258;12.840;2023-02-28T11:38:23;2.25;;;1.08;;
7460;SDS011;6757;52.258;12.840;2023-02-28T11:40:56;1.20;;;1.08;;
7460;SDS011;6757;52.258;12.840;2023-02-28T11:43:39;0.60;;;0.60;;
7460;SDS011;6757;52.258;12.840;2023-02-28T11:46:24;0.88;;;0.65;;
7460;SDS011;6757;52.258;12.840;2023-02-28T11:49:00;1.92;;;1.33;;
7460;SDS011;6757;52.258;12.840;2023-02-28T11:51:45;0.55;;;0.55;;
7460;SDS011;6757;52.258;12.840;2023-02-28T11:54:41;4.15;;;1.20;;
7460;SDS011;6757;52.258;12.840;2023-02-28T11:57:28;2.33;;;1.23;;
7460;SDS011;6757;52.258;12.840;2023-02-28T12:00:07;2.28;;;1.23;;
7460;SDS011;6757;52.258;12.840;2023-02-28T12:02:56;1.85;;;1.48;;
7460;SDS011;6757;52.258;12.840;2023-02-28T12:05:38;2.42;;;0.95;;
7460;SDS011;6757;52.258;12.840;2023-02-28T12:08:20;0.85;;;0.85;;
7460;SDS011;6757;52.258;12.840;2023-02-28T12:11:12;1.45;;;1.30;;
7460;SDS011;6757;52.258;12.840;2023-02-28T12:13:51;1.23;;;0.90;;
7460;SDS011;6757;52.258;12.840;2023-02-28T12:16:38;1.20;;;0.95;;
7460;SDS011;6757;52.258;12.840;2023-02-28T12:19:17;3.25;;;1.20;;
7460;SDS011;6757;52.258;12.840;2023-02-28T12:21:50;1.48;;;1.38;;
7460;SDS011;6757;52.258;12.840;2023-02-28T12:24:42;0.90;;;0.90;;
7460;SDS011;6757;52.258;12.840;2023-02-28T12:27:46;1.58;;;0.90;;
7460;SDS011;6757;52.258;12.840;2023-02-28T12:30:16;4.85;;;2.28;;
7460;SDS011;6757;52.258;12.840;2023-02-28T12:32:46;2.50;;;1.23;;
7460;SDS011;6757;52.258;12.840;2023-02-28T12:35:18;6.15;;;1.52;;
7460;SDS011;6757;52.258;12.840;2023-02-28T12:37:50;3.30;;;1.63;;
7460;SDS011;6757;52.258;12.840;2023-02-28T12:40:25;4.25;;;1.65;;
7460;SDS011;6757;52.258;12.840;2023-02-28T12:43:01;3.80;;;1.67;;
7460;SDS011;6757;52.258;12.840;2023-02-28T12:45:32;5.03;;;2.20;;
7460;SDS011;6757;52.258;12.840;2023-02-28T12:48:10;4.43;;;1.52;;
7460;SDS011;6757;52.258;12.840;2023-02-28T12:50:44;1.83;;;1.27;;
7460;SDS011;6757;52.258;12.840;2023-02-28T12:53:13;4.43;;;1.50;;
7460;SDS011;6757;52.258;12.840;2023-02-28T12:55:52;2.40;;;1.30;;
7460;SDS011;6757;52.258;12.840;2023-02-28T12:58:31;3.72;;;1.98;;
7460;SDS011;6757;52.258;12.840;2023-02-28T13:01:22;1.95;;;1.75;;
7460;SDS011;6757;52.258;12.840;2023-02-28T13:04:32;1.67;;;0.93;;
7460;SDS011;6757;52.258;12.840;2023-02-28T13:07:29;3.25;;;1.20;;
7460;SDS011;6757;52.258;12.840;2023-02-28T13:10:13;2.25;;;1.50;;
7460;SDS011;6757;52.258;12.840;2023-02-28T13:12:48;3.33;;;1.55;;
7460;SDS011;6757;52.258;12.840;2023-02-28T13:15:18;1.48;;;1.27;;
7460;SDS011;6757;52.258;12.840;2023-02-28T13:17:50;3.58;;;1.65;;
7460;SDS011;6757;52.258;12.840;2023-02-28T13:20:20;2.25;;;1.52;;
7460;SDS011;6757;52.258;12.840;2023-02-28T13:22:50;5.85;;;2.17;;
7460;SDS011;6757;52.258;12.840;2023-02-28T13:38:32;3.25;;;1.90;;
7460;SDS011;6757;52.258;12.840;2023-02-28T13:44:15;2.30;;;1.65;;
7460;SDS011;6757;52.258;12.840;2023-02-28T13:49:45;1.13;;;1.13;;
7460;SDS011;6757;52.258;12.840;2023-02-28T13:52:12;2.42;;;1.20;;
7460;SDS011;6757;52.258;12.840;2023-02-28T13:54:50;1.95;;;1.48;;
7460;SDS011;6757;52.258;12.840;2023-02-28T13:57:57;2.22;;;1.63;;
7460;SDS011;6757;52.258;12.840;2023-02-28T14:00:51;3.70;;;1.38;;
7460;SDS011;6757;52.258;12.840;2023-02-28T14:03:37;2.90;;;1.45;;
7460;SDS011;6757;52.258;12.840;2023-02-28T14:06:22;3.67;;;1.70;;
7460;SDS011;6757;52.258;12.840;2023-02-28T14:08:54;1.20;;;1.10;;
7460;SDS011;6757;52.258;12.840;2023-02-28T14:11:29;4.03;;;1.95;;
7460;SDS011;6757;52.258;12.840;2023-02-28T14:13:59;2.80;;;1.20;;
7460;SDS011;6757;52.258;12.840;2023-02-28T14:16:34;3.85;;;1.80;;
7460;SDS011;6757;52.258;12.840;2023-02-28T14:19:09;3.65;;;1.58;;
7460;SDS011;6757;52.258;12.840;2023-02-28T14:21:44;3.67;;;1.92;;
7460;SDS011;6757;52.258;12.840;2023-02-28T14:24:37;2.08;;;1.58;;
7460;SDS011;6757;52.258;12.840;2023-02-28T14:27:29;2.13;;;1.50;;
7460;SDS011;6757;52.258;12.840;2023-02-28T14:30:12;2.00;;;1.30;;
7460;SDS011;6757;52.258;12.840;2023-02-28T14:33:00;1.25;;;1.10;;
7460;SDS011;6757;52.258;12.840;2023-02-28T14:35:45;1.13;;;1.02;;
7460;SDS011;6757;52.258;12.840;2023-02-28T14:38:27;1.88;;;1.50;;
7460;SDS011;6757;52.258;12.840;2023-02-28T14:41:00;1.10;;;1.10;;
7460;SDS011;6757;52.258;12.840;2023-02-28T14:43:32;3.60;;;1.48;;
7460;SDS011;6757;52.258;12.840;2023-02-28T14:45:59;4.13;;;1.77;;
7460;SDS011;6757;52.258;12.840;2023-02-28T14:48:29;2.65;;;1.15;;
7460;SDS011;6757;52.258;12.840;2023-02-28T14:50:57;3.08;;;1.55;;
7460;SDS011;6757;52.258;12.840;2023-02-28T14:53:27;3.15;;;1.60;;
7460;SDS011;6757;52.258;12.840;2023-02-28T14:55:57;4.38;;;1.58;;
7460;SDS011;6757;52.258;12.840;2023-02-28T14:58:25;1.60;;;1.48;;
7460;SDS011;6757;52.258;12.840;2023-02-28T15:00:55;1.67;;;1.48;;
7460;SDS011;6757;52.258;12.840;2023-02-28T15:03:27;3.97;;;1.33;;
7460;SDS011;6757;52.258;12.840;2023-02-28T15:05:59;5.63;;;2.15;;
7460;SDS011;6757;52.258;12.840;2023-02-28T15:08:29;2.53;;;1.45;;
7460;SDS011;6757;52.258;12.840;2023-02-28T15:11:01;3.83;;;1.77;;
7460;SDS011;6757;52.258;12.840;2023-02-28T15:13:33;3.58;;;1.75;;
7460;SDS011;6757;52.258;12.840;2023-02-28T15:16:06;3.22;;;1.67;;
7460;SDS011;6757;52.258;12.840;2023-02-28T15:18:40;3.42;;;1.45;;
7460;SDS011;6757;52.258;12.840;2023-02-28T15:21:15;4.47;;;1.45;;
7460;SDS011;6757;52.258;12.840;2023-02-28T15:23:45;1.88;;;1.50;;
7460;SDS011;6757;52.258;12.840;2023-02-28T15:26:17;2.35;;;1.65;;
7460;SDS011;6757;52.258;12.840;2023-02-28T15:28:57;4.50;;;2.00;;
7460;SDS011;6757;52.258;12.840;2023-02-28T15:31:27;41.78;;;12.40;;
7460;SDS011;6757;52.258;12.840;2023-02-28T15:33:57;87.93;;;21.23;;
7460;SDS011;6757;52.258;12.840;2023-02-28T15:36:31;229.77;;;56.58;;
7460;SDS011;6757;52.258;12.840;2023-02-28T15:39:02;439.02;;;128.68;;
7460;SDS011;6757;52.258;12.840;2023-02-28T15:41:45;336.95;;;98.47;;
7460;SDS011;6757;52.258;12.840;2023-02-28T15:44:23;286.73;;;80.72;;
7460;SDS011;6757;52.258;12.840;2023-02-28T15:46:55;203.38;;;54.40;;
7460;SDS011;6757;52.258;12.840;2023-02-28T15:49:28;141.52;;;40.90;;
7460;SDS011;6757;52.258;12.840;2023-02-28T15:52:03;87.50;;;25.42;;
7460;SDS011;6757;52.258;12.840;2023-02-28T15:54:32;59.17;;;19.77;;
7460;SDS011;6757;52.258;12.840;2023-02-28T15:57:02;53.47;;;13.93;;
7460;SDS011;6757;52.258;12.840;2023-02-28T15:59:33;35.35;;;10.85;;
7460;SDS011;6757;52.258;12.840;2023-02-28T16:02:03;27.98;;;9.52;;
7460;SDS011;6757;52.258;12.840;2023-02-28T16:05:00;17.65;;;6.35;;